^^
Station Historical Data
Daily Summary for January 5, 2018 Units:  Metric    English   Both
« Previous Day
Next Day »
Daily Weekly Monthly Yearly Custom
  High: Low: Average:
Temperature: -17.8 °C -16.4 °C -16.1 °C
Dew Point: -17.8 °C -17 °C -16.6 °C
Humidity: Humidity% 93% 93%
Wind Speed: 0km/h 0km/h 4.3km/h
Wind Gust: 0km/h - -
Wind- - SE
Pressure: 0 hPa 33524.8 hPa -
Precipitation: 314.96 mm    
Historical Graphs
 
 
Tabular Data for January 5, 2018
Time Temperature Dew Point Pressure Wind Wind Speed Wind Gust Humidity Rainfall Rate (Hourly) solar Conditions
-17.8 °C -17.8 °C 0 hPa Calm     Humidity% 0 mm SoftwareType W/m2 Conditions
00:01 -16.4 °C -17 °C 33616.2 hPa ESE 6.4 km/h 17.9 km/h 93% 50.8 mm WeatherDisplay:10.37 W/m2 RA
00:03 -16.4 °C -17 °C 33616.2 hPa NE 8.9 km/h 9 km/h 93% 50.8 mm WeatherDisplay:10.37 W/m2 RA
00:04 -16.4 °C -17 °C 33616.2 hPa East 10.6 km/h 26.9 km/h 93% 50.8 mm WeatherDisplay:10.37 W/m2 RA
00:09 -16.4 °C -17 °C 33616.2 hPa ESE 12.4 km/h 23.8 km/h 93% 58.42 mm WeatherDisplay:10.37 W/m2 RA
00:14 -16.4 °C -17 °C 33616.2 hPa ESE 12.2 km/h 26.9 km/h 93% 58.42 mm WeatherDisplay:10.37 W/m2 RA
00:19 -16.4 °C -17 °C 33602.7 hPa East 1 km/h 15 km/h 93% 58.42 mm WeatherDisplay:10.37 W/m2 RA
00:24 -16.4 °C -17 °C 33602.7 hPa ESE 11.1 km/h 20.9 km/h 93% 58.42 mm WeatherDisplay:10.37 W/m2 RA
00:29 -16.4 °C -17 °C 33602.7 hPa ESE 5 km/h 9 km/h 93% 58.42 mm WeatherDisplay:10.37 W/m2 RA
00:34 -16.4 °C -17 °C 33602.7 hPa ENE 9.8 km/h 23.8 km/h 93% 58.42 mm WeatherDisplay:10.37 W/m2 RA
00:38 -16.4 °C -17 °C 33602.7 hPa SE 13.2 km/h 29.8 km/h 93% 58.42 mm WeatherDisplay:10.37 W/m2 RA
00:39 -16.4 °C -17 °C 33602.7 hPa SE 10.3 km/h 17.9 km/h 93% 58.42 mm WeatherDisplay:10.37 W/m2 RA
00:44 -16.4 °C -16.9 °C 33592.5 hPa SSE 8.2 km/h 17.9 km/h 93% 50.8 mm WeatherDisplay:10.37 W/m2 RA
00:49 -16.3 °C -16.8 °C 33592.5 hPa South 10.6 km/h 20.9 km/h 93% 45.72 mm WeatherDisplay:10.37 W/m2 FEW
00:50 -16.3 °C -16.8 °C 33592.5 hPa East 12.2 km/h 23.8 km/h 93% 45.72 mm WeatherDisplay:10.37 W/m2 FEW
00:56 -16.3 °C -16.8 °C 33592.5 hPa SE 12.9 km/h 23.8 km/h 93% 38.1 mm WeatherDisplay:10.37 W/m2 FEW
01:01 -16.2 °C -16.8 °C 33592.5 hPa ESE 7.6 km/h 17.9 km/h 93% 33.02 mm WeatherDisplay:10.37 W/m2 FEW
01:06 -16.2 °C -16.8 °C 33592.5 hPa ESE 14.5 km/h 29.8 km/h 93% 38.1 mm WeatherDisplay:10.37 W/m2 RA
01:12 -16.2 °C -16.7 °C 33592.5 hPa ENE 15.6 km/h 29.8 km/h 93% 33.02 mm WeatherDisplay:10.37 W/m2 RA
01:17 -16.2 °C -16.7 °C 33592.5 hPa SSW 14.2 km/h 23.8 km/h 93% 25.4 mm WeatherDisplay:10.37 W/m2 FEW
01:22 -16.2 °C -16.7 °C 33592.5 hPa South 15.8 km/h 23.8 km/h 93% 20.32 mm WeatherDisplay:10.37 W/m2 FEW
01:27 -16.2 °C -16.7 °C 33592.5 hPa East 7.2 km/h 15 km/h 93% 12.7 mm WeatherDisplay:10.37 W/m2 FEW
01:32 -16.2 °C -16.7 °C 33582.3 hPa South 4.3 km/h 23.8 km/h 93% 12.7 mm WeatherDisplay:10.37 W/m2 FEW
01:38 -16.2 °C -16.7 °C 33582.3 hPa SE 20 km/h 32.8 km/h 93% 7.62 mm WeatherDisplay:10.37 W/m2 FEW
01:44 -16.1 °C -16.7 °C 33582.3 hPa ESE 7.2 km/h 11.9 km/h 93% 7.62 mm WeatherDisplay:10.37 W/m2 FEW
01:50 -16.1 °C -16.7 °C 33582.3 hPa SE 5.1 km/h 17.9 km/h 93% 7.62 mm WeatherDisplay:10.37 W/m2 FEW
01:56 -16.1 °C -16.7 °C 33582.3 hPa SSE 14.2 km/h 23.8 km/h 93% 7.62 mm WeatherDisplay:10.37 W/m2 FEW
02:01 -16.1 °C -16.7 °C 33582.3 hPa SE 5.6 km/h 17.9 km/h 93% 7.62 mm WeatherDisplay:10.37 W/m2 FEW
02:06 -16.1 °C -16.6 °C 33582.3 hPa SSE 10.9 km/h 23.8 km/h 93% 0 mm WeatherDisplay:10.37 W/m2 FEW
02:11 -16.1 °C -16.6 °C 33582.3 hPa SE 7.2 km/h 20.8 km/h 93% 0 mm WeatherDisplay:10.37 W/m2 FEW
02:17 -16.1 °C -16.6 °C 33582.3 hPa SE 1.6 km/h 9 km/h 93% 0 mm WeatherDisplay:10.37 W/m2 FEW
02:22 -16.1 °C -16.6 °C 33568.8 hPa East 3.1 km/h 9 km/h 93% 0 mm WeatherDisplay:10.37 W/m2 FEW
02:28 -16.1 °C -16.6 °C 33582.3 hPa ESE 12.9 km/h 20.9 km/h 93% 7.62 mm WeatherDisplay:10.37 W/m2 RA
02:33 -16.1 °C -16.6 °C 33568.8 hPa ESE 12.4 km/h 18.2 km/h 93% 7.62 mm WeatherDisplay:10.37 W/m2 RA
02:38 -16.1 °C -16.7 °C 33568.8 hPa SSE 0.8 km/h 9 km/h 93% 7.62 mm WeatherDisplay:10.37 W/m2 FEW
02:43 -16.1 °C -16.7 °C 33568.8 hPa ESE 6 km/h 20.9 km/h 93% 7.62 mm WeatherDisplay:10.37 W/m2 FEW
02:49 -16.1 °C -16.7 °C 33568.8 hPa ESE 8.2 km/h 18.2 km/h 93% 12.7 mm WeatherDisplay:10.37 W/m2 RA
02:54 -16.1 °C -16.7 °C 33568.8 hPa ESE 6.4 km/h 18.2 km/h 93% 12.7 mm WeatherDisplay:10.37 W/m2 RA
02:59 -16.1 °C -16.7 °C 33568.8 hPa SE 6 km/h 12.9 km/h 93% 12.7 mm WeatherDisplay:10.37 W/m2 FEW
03:00 -16.1 °C -16.7 °C 33568.8 hPa SE 11.9 km/h 12.9 km/h 93% 12.7 mm WeatherDisplay:10.37 W/m2 FEW
03:05 -16.1 °C -16.7 °C 33568.8 hPa SE 7.6 km/h 17.9 km/h 93% 12.7 mm WeatherDisplay:10.37 W/m2 RA
03:10 -16.1 °C -16.7 °C 33568.8 hPa ESE 11.9 km/h 23.8 km/h 93% 12.7 mm WeatherDisplay:10.37 W/m2 RA
03:15 -16.1 °C -16.7 °C 33568.8 hPa ENE 0.8 km/h 9 km/h 93% 20.32 mm WeatherDisplay:10.37 W/m2 RA
03:16 -16.1 °C -16.7 °C 33568.8 hPa ENE 16.9 km/h 29.8 km/h 93% 20.32 mm WeatherDisplay:10.37 W/m2 RA
03:21 -16.1 °C -16.7 °C 33568.8 hPa East 16.3 km/h 32.8 km/h 93% 25.4 mm WeatherDisplay:10.37 W/m2 RA
03:26 -16.1 °C -16.7 °C 33568.8 hPa East 9.3 km/h 15 km/h 93% 20.32 mm WeatherDisplay:10.37 W/m2 RA
03:31 -16.1 °C -16.7 °C 33568.8 hPa Calm   6 km/h 93% 25.4 mm WeatherDisplay:10.37 W/m2 RA
03:36 -16.2 °C -16.7 °C 33568.8 hPa SE 6.3 km/h 17.9 km/h 93% 25.4 mm WeatherDisplay:10.37 W/m2 RA
03:42 -16.2 °C -16.7 °C 33568.8 hPa ESE 5 km/h 15.6 km/h 93% 25.4 mm WeatherDisplay:10.37 W/m2 FEW
03:49 -16.1 °C -16.7 °C 33558.6 hPa NNE 6 km/h 17.9 km/h 93% 25.4 mm WeatherDisplay:10.37 W/m2 RA
03:55 -16.1 °C -16.7 °C 33558.6 hPa SE 9.3 km/h 15 km/h 93% 33.02 mm WeatherDisplay:10.37 W/m2 RA
03:57 -16.1 °C -16.7 °C 33558.6 hPa SE 6.8 km/h 12.9 km/h 93% 33.02 mm WeatherDisplay:10.37 W/m2 RA
04:02 -16.2 °C -16.7 °C 33558.6 hPa Calm     93% 33.02 mm WeatherDisplay:10.37 W/m2 FEW
04:04 -16.2 °C -16.7 °C 33558.6 hPa Calm     93% 25.4 mm WeatherDisplay:10.37 W/m2 FEW
04:10 -16.2 °C -16.7 °C 33558.6 hPa SSW 3.7 km/h 9 km/h 93% 33.02 mm WeatherDisplay:10.37 W/m2 RA
04:15 -16.2 °C -16.7 °C 33558.6 hPa Calm   15 km/h 93% 25.4 mm WeatherDisplay:10.37 W/m2 RA
04:20 -16.2 °C -16.7 °C 33558.6 hPa ESE 3.7 km/h 11.9 km/h 93% 20.32 mm WeatherDisplay:10.37 W/m2 FEW
04:25 -16.2 °C -16.7 °C 33558.6 hPa SE 6.3 km/h 20.9 km/h 93% 20.32 mm WeatherDisplay:10.37 W/m2 FEW
04:30 -16.2 °C -16.7 °C 33558.6 hPa ESE 12.9 km/h 23.8 km/h 93% 12.7 mm WeatherDisplay:10.37 W/m2 FEW
04:31 -16.2 °C -16.7 °C 33558.6 hPa SE 11.6 km/h 20.9 km/h 93% 12.7 mm WeatherDisplay:10.37 W/m2 FEW
04:36 -16.2 °C -16.7 °C 33558.6 hPa South 4.7 km/h 11.9 km/h 93% 12.7 mm WeatherDisplay:10.37 W/m2 FEW
04:41 -16.2 °C -16.7 °C 33545.1 hPa SSW 4.2 km/h 15 km/h 93% 12.7 mm WeatherDisplay:10.37 W/m2 FEW
04:46 -16.2 °C -16.7 °C 33545.1 hPa SE 2.1 km/h 10.3 km/h 93% 12.7 mm WeatherDisplay:10.37 W/m2 RA
04:51 -16.1 °C -16.7 °C 33545.1 hPa SE 6.8 km/h 17.9 km/h 93% 12.7 mm WeatherDisplay:10.37 W/m2 RA
04:56 -16.1 °C -16.6 °C 33545.1 hPa Calm     93% 12.7 mm WeatherDisplay:10.37 W/m2 FEW
05:01 -16.1 °C -16.6 °C 33545.1 hPa South 10.6 km/h 20.9 km/h 93% 12.7 mm WeatherDisplay:10.37 W/m2 FEW
05:06 -16.1 °C -16.6 °C 33545.1 hPa SE 4.2 km/h 4.2 km/h 93% 7.62 mm WeatherDisplay:10.37 W/m2 FEW
05:11 -16.1 °C -16.6 °C 33545.1 hPa ENE 6.4 km/h 11.9 km/h 93% 12.7 mm WeatherDisplay:10.37 W/m2 RA
05:16 -16.1 °C -16.6 °C 33545.1 hPa ESE 0.3 km/h 15 km/h 93% 12.7 mm WeatherDisplay:10.37 W/m2 RA
05:21 -16.1 °C -16.6 °C 33545.1 hPa Calm     93% 12.7 mm WeatherDisplay:10.37 W/m2 RA
05:26 -16.1 °C -16.6 °C 33545.1 hPa SSW 10.3 km/h 15 km/h 93% 12.7 mm WeatherDisplay:10.37 W/m2 RA
05:31 -16.1 °C -16.6 °C 33558.6 hPa SE 1.3 km/h 12.9 km/h 93% 20.32 mm WeatherDisplay:10.37 W/m2 RA
05:36 -16.1 °C -16.6 °C 33545.1 hPa Calm   17.9 km/h 93% 20.32 mm WeatherDisplay:10.37 W/m2 RA
05:41 -16.1 °C -16.6 °C 33545.1 hPa SE 5.5 km/h 9 km/h 93% 20.32 mm WeatherDisplay:10.37 W/m2 FEW
05:43 -16.1 °C -16.6 °C 33545.1 hPa ESE 1 km/h 12.9 km/h 93% 12.7 mm WeatherDisplay:10.37 W/m2 FEW
05:48 -16.1 °C -16.6 °C 33545.1 hPa South 3.7 km/h 15 km/h 93% 12.7 mm WeatherDisplay:10.37 W/m2 FEW
05:53 -16.1 °C -16.6 °C 33545.1 hPa SSE 6.3 km/h 29.8 km/h 93% 20.32 mm WeatherDisplay:10.37 W/m2 RA
05:58 -16.1 °C -16.6 °C 33545.1 hPa SE 3.1 km/h 3.1 km/h 93% 20.32 mm WeatherDisplay:10.37 W/m2 RA
06:00 -16.1 °C -16.6 °C 33545.1 hPa SSE 6.3 km/h 11.9 km/h 93% 20.32 mm WeatherDisplay:10.37 W/m2 FEW
06:05 -16.1 °C -16.6 °C 33545.1 hPa South 5 km/h 11.9 km/h 93% 20.32 mm WeatherDisplay:10.37 W/m2 FEW
06:10 -16.1 °C -16.6 °C 33545.1 hPa SSE 2.6 km/h 9 km/h 93% 20.32 mm WeatherDisplay:10.37 W/m2 RA
06:15 -16.1 °C -16.6 °C 33545.1 hPa SSW 7.2 km/h 15.6 km/h 93% 20.32 mm WeatherDisplay:10.37 W/m2 RA
06:20 -16 °C -16.6 °C 33545.1 hPa SSE 3.9 km/h 9 km/h 93% 12.7 mm WeatherDisplay:10.37 W/m2 FEW
06:22 -16.1 °C -16.6 °C 33545.1 hPa Calm     93% 12.7 mm WeatherDisplay:10.37 W/m2 FEW
06:27 -16.1 °C -16.6 °C 33545.1 hPa SSE 6.4 km/h 26.9 km/h 93% 12.7 mm WeatherDisplay:10.37 W/m2 FEW
06:29 -16.1 °C -16.6 °C 33558.6 hPa South 6.3 km/h 29.8 km/h 93% 12.7 mm WeatherDisplay:10.37 W/m2 FEW
06:34 -16.1 °C -16.6 °C 33558.6 hPa SSE 5.1 km/h 15 km/h 93% 12.7 mm WeatherDisplay:10.37 W/m2 FEW
06:39 -16.1 °C -16.6 °C 33558.6 hPa SSE 7.2 km/h 20.9 km/h 93% 12.7 mm WeatherDisplay:10.37 W/m2 FEW
06:44 -16.1 °C -16.6 °C 33558.6 hPa SE 9.8 km/h 18.2 km/h 93% 12.7 mm WeatherDisplay:10.37 W/m2 RA
06:46 -16.1 °C -16.6 °C 33558.6 hPa SE 4.7 km/h 18.2 km/h 93% 12.7 mm WeatherDisplay:10.37 W/m2 RA
06:51 -16.1 °C -16.6 °C 33558.6 hPa Calm     93% 12.7 mm WeatherDisplay:10.37 W/m2 FEW
06:56 -16 °C -16.6 °C 33558.6 hPa SSE 3.1 km/h 17.9 km/h 93% 12.7 mm WeatherDisplay:10.37 W/m2 FEW
07:01 -16 °C -16.6 °C 33558.6 hPa SSE 5.6 km/h 10.3 km/h 93% 12.7 mm WeatherDisplay:10.37 W/m2 FEW
07:06 -16.1 °C -16.6 °C 33558.6 hPa ESE 0.3 km/h 5.1 km/h 93% 12.7 mm WeatherDisplay:10.37 W/m2 FEW
07:10 -16.1 °C -16.6 °C 33558.6 hPa Calm     93% 7.62 mm WeatherDisplay:10.37 W/m2 FEW
07:15 -16.1 °C -16.6 °C 33558.6 hPa South 6 km/h 15 km/h 93% 7.62 mm WeatherDisplay:10.37 W/m2 FEW
07:20 -16.1 °C -16.6 °C 33558.6 hPa Calm   6 km/h 93% 7.62 mm WeatherDisplay:10.37 W/m2 FEW
07:27 -16.1 °C -16.6 °C 33558.6 hPa SE 2.3 km/h 11.9 km/h 93% 12.7 mm WeatherDisplay:10.37 W/m2 RA
07:28 -16.1 °C -16.6 °C 33558.6 hPa SE 9.3 km/h 18.2 km/h 93% 12.7 mm WeatherDisplay:10.37 W/m2 RA
07:33 -16.1 °C -16.6 °C 33558.6 hPa ESE 3.9 km/h 9 km/h 93% 12.7 mm WeatherDisplay:10.37 W/m2 FEW
07:38 -16 °C -16.6 °C 33558.6 hPa SE 0.8 km/h 9 km/h 93% 12.7 mm WeatherDisplay:10.37 W/m2 FEW
07:43 -16.1 °C -16.6 °C 33568.8 hPa SSE 3.9 km/h 11.9 km/h 93% 7.62 mm WeatherDisplay:10.37 W/m2 FEW
07:48 -16 °C -16.6 °C 33568.8 hPa SSE 5 km/h 9 km/h 93% 7.62 mm WeatherDisplay:10.37 W/m2 FEW
07:53 -16 °C -16.6 °C 33568.8 hPa Calm   15 km/h 93% 7.62 mm WeatherDisplay:10.37 W/m2 FEW
07:59 -16.1 °C -16.6 °C 33568.8 hPa South 8 km/h 17.9 km/h 93% 7.62 mm WeatherDisplay:10.37 W/m2 FEW
08:04 -16.1 °C -16.6 °C 33568.8 hPa SSE 6 km/h 20.9 km/h 93% 7.62 mm WeatherDisplay:10.37 W/m2 FEW
08:09 -16 °C -16.6 °C 33568.8 hPa East 2.6 km/h 9 km/h 93% 7.62 mm WeatherDisplay:10.37 W/m2 FEW
08:15 -16 °C -16.6 °C 33568.8 hPa South 4.3 km/h 29.8 km/h 93% 7.62 mm WeatherDisplay:10.37 W/m2 FEW
08:20 -16 °C -16.6 °C 33568.8 hPa Calm     93% 7.62 mm WeatherDisplay:10.37 W/m2 FEW
08:26 -16 °C -16.6 °C 33568.8 hPa SSW 2.6 km/h 5.1 km/h 93% 0 mm WeatherDisplay:10.37 W/m2 FEW
08:27 -16 °C -16.6 °C 33568.8 hPa SSW 2.9 km/h 20.9 km/h 93% 0 mm WeatherDisplay:10.37 W/m2 FEW
08:32 -16 °C -16.6 °C 33568.8 hPa Calm   3.1 km/h 93% 0 mm WeatherDisplay:10.37 W/m2 FEW
08:33 -16 °C -16.6 °C 33568.8 hPa SSE 2.1 km/h 9 km/h 93% 0 mm WeatherDisplay:10.37 W/m2 FEW
08:39 -16 °C -16.6 °C 33582.3 hPa SSE 5 km/h 10.3 km/h 93% 0 mm WeatherDisplay:10.37 W/m2 FEW
08:44 -16 °C -16.6 °C 33568.8 hPa SSE 9.8 km/h 20.8 km/h 93% 7.62 mm WeatherDisplay:10.37 W/m2 RA
08:49 -16 °C -16.6 °C 33582.3 hPa SE 4.3 km/h 9 km/h 93% 7.62 mm WeatherDisplay:10.37 W/m2 RA
08:54 -16 °C -16.6 °C 33582.3 hPa SSE 2.6 km/h 5.1 km/h 93% 7.62 mm WeatherDisplay:10.37 W/m2 FEW
08:59 -16 °C -16.6 °C 33582.3 hPa South 1 km/h 6 km/h 93% 7.62 mm WeatherDisplay:10.37 W/m2 FEW
09:04 -16 °C -16.6 °C 33582.3 hPa SSE 3.9 km/h 9 km/h 93% 12.7 mm WeatherDisplay:10.37 W/m2 RA
09:05 -16 °C -16.6 °C 33582.3 hPa SE 4.3 km/h 15 km/h 93% 12.7 mm WeatherDisplay:10.37 W/m2 RA
09:10 -16 °C -16.6 °C 33582.3 hPa Calm     93% 12.7 mm WeatherDisplay:10.37 W/m2 RA
09:11 -16 °C -16.6 °C 33582.3 hPa Calm     93% 12.7 mm WeatherDisplay:10.37 W/m2 RA
09:16 -16 °C -16.6 °C 33582.3 hPa South 12.4 km/h 26.9 km/h 93% 12.7 mm WeatherDisplay:10.37 W/m2 FEW
09:21 -16 °C -16.6 °C 33582.3 hPa South 3.9 km/h 11.9 km/h 93% 12.7 mm WeatherDisplay:10.37 W/m2 RA
09:26 -16 °C -16.6 °C 33592.5 hPa SSE 5 km/h 9 km/h 93% 12.7 mm WeatherDisplay:10.37 W/m2 RA
09:31 -16 °C -16.6 °C 33592.5 hPa SSE 6.8 km/h 9 km/h 93% 12.7 mm WeatherDisplay:10.37 W/m2 FEW
09:36 -16 °C -16.6 °C 33592.5 hPa SSW 1 km/h 9 km/h 93% 12.7 mm WeatherDisplay:10.37 W/m2 FEW
09:41 -15.9 °C -16.5 °C 33592.5 hPa South 2.6 km/h 15 km/h 93% 12.7 mm WeatherDisplay:10.37 W/m2 FEW
09:46 -15.9 °C -16.5 °C 33592.5 hPa SSE 5 km/h 15 km/h 93% 12.7 mm WeatherDisplay:10.37 W/m2 FEW
09:52 -15.9 °C -16.5 °C 33592.5 hPa SSE 1.6 km/h 9 km/h 93% 12.7 mm WeatherDisplay:10.37 W/m2 RA
09:57 -15.9 °C -16.5 °C 33592.5 hPa SE 4.2 km/h 10.3 km/h 93% 20.32 mm WeatherDisplay:10.37 W/m2 RA
10:03 -16 °C -16.6 °C 33592.5 hPa Calm   2.6 km/h 93% 12.7 mm WeatherDisplay:10.37 W/m2 FEW
10:08 -15.9 °C -16.5 °C 33592.5 hPa SSE 9.7 km/h 26.9 km/h 93% 12.7 mm WeatherDisplay:10.37 W/m2 FEW
10:13 -15.9 °C -16.5 °C 33592.5 hPa South 9.8 km/h 23.8 km/h 93% 12.7 mm WeatherDisplay:10.37 W/m2 FEW
10:18 -16 °C -16.6 °C 33592.5 hPa East 2.9 km/h 9 km/h 93% 12.7 mm WeatherDisplay:10.37 W/m2 FEW
10:24 -16 °C -16.6 °C 33602.7 hPa Calm     93% 12.7 mm WeatherDisplay:10.37 W/m2 FEW
10:29 -16 °C -16.6 °C 33602.7 hPa SSE 6.8 km/h 15.6 km/h 93% 12.7 mm WeatherDisplay:10.37 W/m2 FEW
10:32 -16 °C -16.6 °C 33602.7 hPa SSW 1 km/h 9 km/h 93% 12.7 mm WeatherDisplay:10.37 W/m2 FEW
10:38 -15.9 °C -16.5 °C 33602.7 hPa SSW 4.7 km/h 20.9 km/h 93% 12.7 mm WeatherDisplay:10.37 W/m2 FEW
10:40 -15.9 °C -16.5 °C 33602.7 hPa ENE 6.3 km/h 17.9 km/h 93% 12.7 mm WeatherDisplay:10.37 W/m2 FEW
10:45 -15.9 °C -16.5 °C 33602.7 hPa Calm     93% 12.7 mm WeatherDisplay:10.37 W/m2 FEW
10:50 -15.9 °C -16.5 °C 33602.7 hPa Calm     93% 7.62 mm WeatherDisplay:10.37 W/m2 FEW
10:55 -16 °C -16.6 °C 33602.7 hPa Calm   6 km/h 93% 0 mm WeatherDisplay:10.37 W/m2 FEW
11:00 -16 °C -16.6 °C 33602.7 hPa SE 7.2 km/h 23.3 km/h 93% 0 mm WeatherDisplay:10.37 W/m2 FEW
11:05 -16 °C -16.6 °C 33602.7 hPa SE 6.3 km/h 11.9 km/h 93% 0 mm WeatherDisplay:10.37 W/m2 FEW
11:10 -15.9 °C -16.5 °C 33616.2 hPa South 4.2 km/h 4.2 km/h 93% 0 mm WeatherDisplay:10.37 W/m2 FEW
11:13 -15.9 °C -16.5 °C 33616.2 hPa South 6.3 km/h 20.9 km/h 93% 0 mm WeatherDisplay:10.37 W/m2 FEW
11:19 -15.9 °C -16.5 °C 33616.2 hPa Calm   9 km/h 93% 0 mm WeatherDisplay:10.37 W/m2 FEW
11:24 -15.9 °C -16.5 °C 33616.2 hPa SSE 1.8 km/h 9 km/h 93% 0 mm WeatherDisplay:10.37 W/m2 FEW
11:29 -15.9 °C -16.5 °C 33616.2 hPa South 2.9 km/h 9 km/h 93% 7.62 mm WeatherDisplay:10.37 W/m2 RA
11:35 -15.9 °C -16.5 °C 33616.2 hPa Calm     93% 7.62 mm WeatherDisplay:10.37 W/m2 RA
11:40 -15.9 °C -16.5 °C 33616.2 hPa Calm     93% 7.62 mm WeatherDisplay:10.37 W/m2 FEW
11:45 -15.9 °C -16.5 °C 33616.2 hPa SSE 7.2 km/h 15.6 km/h 93% 7.62 mm WeatherDisplay:10.37 W/m2 FEW
11:56 -15.9 °C -16.5 °C 33616.2 hPa South 1.6 km/h 3.1 km/h 93% 7.62 mm WeatherDisplay:10.37 W/m2 FEW
11:57 -15.9 °C -16.5 °C 33616.2 hPa South 0.5 km/h 9 km/h 93% 7.62 mm WeatherDisplay:10.37 W/m2 FEW
12:02 -15.9 °C -16.5 °C 33616.2 hPa ESE 1.8 km/h 9 km/h 93% 7.62 mm WeatherDisplay:10.37 W/m2 FEW
12:08 -15.9 °C -16.5 °C 33616.2 hPa South 2.9 km/h 9 km/h 93% 7.62 mm WeatherDisplay:10.37 W/m2 FEW
12:09 -15.9 °C -16.5 °C 33616.2 hPa Calm     93% 7.62 mm WeatherDisplay:10.37 W/m2 FEW
12:14 -15.9 °C -16.5 °C 33616.2 hPa SSE 1.6 km/h 9 km/h 93% 7.62 mm WeatherDisplay:10.37 W/m2 FEW
12:19 -15.9 °C -16.5 °C 33616.2 hPa South 1.8 km/h 9 km/h 93% 7.62 mm WeatherDisplay:10.37 W/m2 FEW
12:24 -15.9 °C -16.5 °C 33616.2 hPa Calm     93% 7.62 mm WeatherDisplay:10.37 W/m2 FEW
12:29 -15.9 °C -16.5 °C 33602.7 hPa SSE 7.2 km/h 15 km/h 93% 0 mm WeatherDisplay:10.37 W/m2 FEW
12:34 -15.9 °C -16.5 °C 33602.7 hPa SE 3.1 km/h 20.9 km/h 93% 0 mm WeatherDisplay:10.37 W/m2 FEW
12:40 -15.9 °C -16.5 °C 33602.7 hPa SE 1.3 km/h 9 km/h 93% 0 mm WeatherDisplay:10.37 W/m2 FEW
12:45 -16 °C -16.6 °C 33602.7 hPa SE 6.8 km/h 20.9 km/h 93% 0 mm WeatherDisplay:10.37 W/m2 FEW
12:51 -16 °C -16.6 °C 33616.2 hPa South 3.7 km/h 9 km/h 93% 7.62 mm WeatherDisplay:10.37 W/m2 RA
12:52 -16 °C -16.6 °C 33616.2 hPa South 1.3 km/h 9 km/h 93% 7.62 mm WeatherDisplay:10.37 W/m2 RA
12:56 -16 °C -16.6 °C 33602.7 hPa SE 1 km/h 11.9 km/h 93% 7.62 mm WeatherDisplay:10.37 W/m2 RA
12:57 -16 °C -16.6 °C 33602.7 hPa Calm     93% 7.62 mm WeatherDisplay:10.37 W/m2 RA
13:03 -16 °C -16.6 °C 33602.7 hPa South 6.4 km/h 9 km/h 93% 7.62 mm WeatherDisplay:10.37 W/m2 FEW
13:08 -16 °C -16.6 °C 33616.2 hPa SE 1.6 km/h 7.7 km/h 93% 12.7 mm WeatherDisplay:10.37 W/m2 RA
13:13 -16 °C -16.6 °C 33616.2 hPa South 6 km/h 17.9 km/h 93% 12.7 mm WeatherDisplay:10.37 W/m2 RA
13:18 -16 °C -16.6 °C 33616.2 hPa South 1.6 km/h 11.9 km/h 93% 12.7 mm WeatherDisplay:10.37 W/m2 FEW
13:19 -16 °C -16.6 °C 33602.7 hPa Calm     93% 12.7 mm WeatherDisplay:10.37 W/m2 FEW
13:25 -16 °C -16.6 °C 33602.7 hPa SSE 0.8 km/h 9 km/h 93% 12.7 mm WeatherDisplay:10.37 W/m2 RA
13:31 -16 °C -16.6 °C 33602.7 hPa SSE 3.9 km/h 11.9 km/h 93% 12.7 mm WeatherDisplay:10.37 W/m2 FEW
13:36 -16 °C -16.6 °C 33602.7 hPa SE 1.6 km/h 18.2 km/h 93% 12.7 mm WeatherDisplay:10.37 W/m2 FEW
13:41 -16 °C -16.6 °C 33602.7 hPa SSE 0.5 km/h 6 km/h 93% 12.7 mm WeatherDisplay:10.37 W/m2 FEW
13:46 -16.1 °C -16.6 °C 33602.7 hPa ESE 2.3 km/h 12.9 km/h 93% 12.7 mm WeatherDisplay:10.37 W/m2 FEW
13:47 -16 °C -16.6 °C 33602.7 hPa ESE 5.1 km/h 11.9 km/h 93% 12.7 mm WeatherDisplay:10.37 W/m2 FEW
13:52 -16.1 °C -16.6 °C 33602.7 hPa Calm     93% 12.7 mm WeatherDisplay:10.37 W/m2 RA
13:57 -16.1 °C -16.6 °C 33602.7 hPa Calm     93% 12.7 mm WeatherDisplay:10.37 W/m2 RA
14:02 -16.1 °C -16.6 °C 33602.7 hPa SE 7.2 km/h 20.9 km/h 93% 12.7 mm WeatherDisplay:10.37 W/m2 FEW
14:08 -16.1 °C -16.6 °C 33602.7 hPa Calm     93% 12.7 mm WeatherDisplay:10.37 W/m2 RA
14:14 -16.1 °C -16.6 °C 33602.7 hPa SSE 2.9 km/h 15 km/h 93% 12.7 mm WeatherDisplay:10.37 W/m2 RA
14:19 -16.1 °C -16.6 °C 33602.7 hPa Calm   9 km/h 93% 12.7 mm WeatherDisplay:10.37 W/m2 FEW
14:20 -16.1 °C -16.6 °C 33602.7 hPa Calm   5.1 km/h 93% 12.7 mm WeatherDisplay:10.37 W/m2 FEW
14:26 -16.1 °C -16.6 °C 33602.7 hPa Calm     93% 12.7 mm WeatherDisplay:10.37 W/m2 FEW
14:28 -16.1 °C -16.6 °C 33602.7 hPa SE 0.8 km/h 5.1 km/h 93% 12.7 mm WeatherDisplay:10.37 W/m2 FEW
14:34 -16.1 °C -16.6 °C 33602.7 hPa South 10.9 km/h 26.9 km/h 93% 12.7 mm WeatherDisplay:10.37 W/m2 RA
14:39 -16.1 °C -16.6 °C 33602.7 hPa South 1.6 km/h 9 km/h 93% 12.7 mm WeatherDisplay:10.37 W/m2 RA
14:44 -16.1 °C -16.6 °C 33602.7 hPa South 3.1 km/h 9 km/h 93% 12.7 mm WeatherDisplay:10.37 W/m2 FEW
14:49 -16.1 °C -16.6 °C 33602.7 hPa SE 14 km/h 26.9 km/h 93% 12.7 mm WeatherDisplay:10.37 W/m2 FEW
14:54 -16 °C -16.6 °C 33602.7 hPa SE 2.3 km/h 5.1 km/h 93% 12.7 mm WeatherDisplay:10.37 W/m2 FEW
14:56 -16 °C -16.6 °C 33602.7 hPa Calm   9 km/h 93% 12.7 mm WeatherDisplay:10.37 W/m2 FEW
15:01 -16 °C -16.6 °C 33602.7 hPa Calm     93% 12.7 mm WeatherDisplay:10.37 W/m2 FEW
15:07 -16 °C -16.6 °C 33602.7 hPa SSE 0.3 km/h 3.1 km/h 93% 12.7 mm WeatherDisplay:10.37 W/m2 FEW
15:12 -16 °C -16.6 °C 33602.7 hPa SE 2.3 km/h 9 km/h 93% 7.62 mm WeatherDisplay:10.37 W/m2 FEW
15:17 -16 °C -16.6 °C 33602.7 hPa Calm   7.7 km/h 93% 7.62 mm WeatherDisplay:10.37 W/m2 FEW
15:22 -16 °C -16.6 °C 33602.7 hPa SE 6.4 km/h 11.9 km/h 93% 7.62 mm WeatherDisplay:10.37 W/m2 FEW
15:27 -15.9 °C -16.5 °C 33602.7 hPa ESE 4.2 km/h 7.7 km/h 93% 7.62 mm WeatherDisplay:10.37 W/m2 FEW
15:33 -15.9 °C -16.5 °C 33602.7 hPa ESE 4.7 km/h 9 km/h 93% 0 mm WeatherDisplay:10.37 W/m2 FEW
15:38 -15.9 °C -16.5 °C 33602.7 hPa Calm   9 km/h 93% 0 mm WeatherDisplay:10.37 W/m2 FEW
15:44 -15.9 °C -16.5 °C 33602.7 hPa SE 6.8 km/h 17.9 km/h 93% 0 mm WeatherDisplay:10.37 W/m2 FEW
15:49 -15.9 °C -16.5 °C 33602.7 hPa SSE 2.1 km/h 9 km/h 93% 0 mm WeatherDisplay:10.37 W/m2 FEW
15:55 -15.9 °C -16.5 °C 33602.7 hPa Calm     93% 0 mm WeatherDisplay:10.37 W/m2 FEW
15:57 -15.9 °C -16.5 °C 33602.7 hPa SSE 2.6 km/h 9 km/h 93% 0 mm WeatherDisplay:10.37 W/m2 FEW
16:02 -15.9 °C -16.5 °C 33602.7 hPa SSW 4.2 km/h 20.9 km/h 93% 0 mm WeatherDisplay:10.37 W/m2 FEW
16:07 -15.9 °C -16.4 °C 33602.7 hPa SE 0.8 km/h 9 km/h 93% 7.62 mm WeatherDisplay:10.37 W/m2 RA
16:12 -15.9 °C -16.4 °C 33602.7 hPa ESE 1.8 km/h 7.7 km/h 93% 7.62 mm WeatherDisplay:10.37 W/m2 RA
16:18 -15.9 °C -16.4 °C 33602.7 hPa SE 0.3 km/h 3.1 km/h 93% 7.62 mm WeatherDisplay:10.37 W/m2 FEW
16:23 -15.9 °C -16.5 °C 33602.7 hPa ESE 8.5 km/h 17.9 km/h 93% 7.62 mm WeatherDisplay:10.37 W/m2 FEW
16:28 -15.9 °C -16.4 °C 33602.7 hPa SE 7.2 km/h 15 km/h 93% 7.62 mm WeatherDisplay:10.37 W/m2 FEW
16:31 -15.9 °C -16.4 °C 33602.7 hPa South 10.1 km/h 23.8 km/h 93% 7.62 mm WeatherDisplay:10.37 W/m2 FEW
16:37 -15.9 °C -16.4 °C 33602.7 hPa SSE 3.4 km/h 12.9 km/h 93% 7.62 mm WeatherDisplay:10.37 W/m2 FEW
16:42 -15.9 °C -16.4 °C 33602.7 hPa ESE 1.8 km/h 20.9 km/h 93% 7.62 mm WeatherDisplay:10.37 W/m2 FEW
16:47 -15.9 °C -16.4 °C 33602.7 hPa ESE 0.5 km/h 9 km/h 93% 7.62 mm WeatherDisplay:10.37 W/m2 FEW
16:52 -15.9 °C -16.4 °C 33602.7 hPa Calm     93% 7.62 mm WeatherDisplay:10.37 W/m2 FEW
17:03 -15.9 °C -16.4 °C 33592.5 hPa SSE 8 km/h 11.9 km/h 93% 7.62 mm WeatherDisplay:10.37 W/m2 FEW
17:06 -15.9 °C -16.4 °C 33592.5 hPa SE 3.9 km/h 11.9 km/h 93% 0 mm WeatherDisplay:10.37 W/m2 FEW
17:12 -15.9 °C -16.4 °C 33592.5 hPa South 6.8 km/h 9 km/h 93% 0 mm WeatherDisplay:10.37 W/m2 FEW
17:18 -15.8 °C -16.4 °C 33592.5 hPa SE 3.1 km/h 10.3 km/h 93% 0 mm WeatherDisplay:10.37 W/m2 FEW
17:20 -15.8 °C -16.4 °C 33592.5 hPa SSE 10.1 km/h 17.9 km/h 93% 0 mm WeatherDisplay:10.37 W/m2 FEW
17:25 -15.8 °C -16.4 °C 33592.5 hPa SE 0.5 km/h 9 km/h 93% 0 mm WeatherDisplay:10.37 W/m2 FEW
17:36 -15.8 °C -16.4 °C 33592.5 hPa SSE 2.9 km/h 10.3 km/h 93% 0 mm WeatherDisplay:10.37 W/m2 FEW
17:41 -15.8 °C -16.4 °C 33582.3 hPa East 0.8 km/h 11.9 km/h 93% 0 mm WeatherDisplay:10.37 W/m2 FEW
17:47 -15.8 °C -16.4 °C 33582.3 hPa Calm     93% 0 mm WeatherDisplay:10.37 W/m2 FEW
17:50 -15.8 °C -16.4 °C 33582.3 hPa SSE 0.8 km/h 2.6 km/h 93% 0 mm WeatherDisplay:10.37 W/m2 FEW
17:56 -15.8 °C -16.4 °C 33582.3 hPa ENE 2.1 km/h 17.9 km/h 93% 0 mm WeatherDisplay:10.37 W/m2 FEW
18:01 -15.8 °C -16.3 °C 33582.3 hPa East 1.3 km/h 7.7 km/h 93% 0 mm WeatherDisplay:10.37 W/m2 FEW
18:06 -15.8 °C -16.3 °C 33582.3 hPa SSE 2.3 km/h 12.9 km/h 93% 0 mm WeatherDisplay:10.37 W/m2 FEW
18:11 -15.8 °C -16.3 °C 33582.3 hPa Calm   9 km/h 93% 0 mm WeatherDisplay:10.37 W/m2 FEW
18:12 -15.8 °C -16.3 °C 33582.3 hPa SE 3.9 km/h 12.9 km/h 93% 0 mm WeatherDisplay:10.37 W/m2 FEW
18:17 -15.8 °C -16.3 °C 33582.3 hPa ESE 1.6 km/h 11.9 km/h 93% 0 mm WeatherDisplay:10.37 W/m2 FEW
18:22 -15.8 °C -16.3 °C 33568.8 hPa SSW 4.2 km/h 7.7 km/h 93% 0 mm WeatherDisplay:10.37 W/m2 FEW
18:27 -15.8 °C -16.3 °C 33568.8 hPa ENE 0.3 km/h 3.1 km/h 93% 0 mm WeatherDisplay:10.37 W/m2 FEW
18:32 -15.8 °C -16.3 °C 33568.8 hPa SE 0.3 km/h 6 km/h 93% 0 mm WeatherDisplay:10.37 W/m2 FEW
18:38 -15.8 °C -16.3 °C 33568.8 hPa NNE 0.5 km/h 12.9 km/h 93% 0 mm WeatherDisplay:10.37 W/m2 FEW
18:43 -15.8 °C -16.3 °C 33568.8 hPa East 0.8 km/h 9 km/h 93% 7.62 mm WeatherDisplay:10.37 W/m2 RA
18:49 -15.8 °C -16.3 °C 33568.8 hPa ESE 2.3 km/h 9 km/h 93% 7.62 mm WeatherDisplay:10.37 W/m2 RA
18:54 -15.8 °C -16.3 °C 33568.8 hPa Calm   11.9 km/h 93% 7.62 mm WeatherDisplay:10.37 W/m2 FEW
18:59 -15.8 °C -16.3 °C 33568.8 hPa SE 0.3 km/h 7.7 km/h 93% 7.62 mm WeatherDisplay:10.37 W/m2 FEW
19:04 -15.8 °C -16.3 °C 33568.8 hPa SSE 5.6 km/h 6 km/h 93% 7.62 mm WeatherDisplay:10.37 W/m2 FEW
19:09 -15.8 °C -16.3 °C 33568.8 hPa ESE 3.9 km/h 9 km/h 93% 7.62 mm WeatherDisplay:10.37 W/m2 FEW
19:12 -15.8 °C -16.3 °C 33568.8 hPa East 4.3 km/h 20.9 km/h 93% 7.62 mm WeatherDisplay:10.37 W/m2 FEW
19:17 -15.8 °C -16.3 °C 33568.8 hPa South 5.1 km/h 15 km/h 93% 7.62 mm WeatherDisplay:10.37 W/m2 FEW
19:22 -15.8 °C -16.3 °C 33558.6 hPa SE 8 km/h 25.9 km/h 93% 7.62 mm WeatherDisplay:10.37 W/m2 FEW
19:27 -15.8 °C -16.3 °C 33558.6 hPa SE 8.2 km/h 17.9 km/h 93% 7.62 mm WeatherDisplay:10.37 W/m2 FEW
19:32 -15.8 °C -16.3 °C 33558.6 hPa SE 6 km/h 17.9 km/h 93% 7.62 mm WeatherDisplay:10.37 W/m2 FEW
19:39 -15.8 °C -16.4 °C 33558.6 hPa SSE 4.2 km/h 15.6 km/h 93% 12.7 mm WeatherDisplay:10.37 W/m2 RA
19:43 -15.8 °C -16.4 °C 33558.6 hPa ESE 3.1 km/h 11.9 km/h 93% 12.7 mm WeatherDisplay:10.37 W/m2 RA
19:48 -15.9 °C -16.4 °C 33558.6 hPa East 12.9 km/h 26.9 km/h 93% 12.7 mm WeatherDisplay:10.37 W/m2 RA
19:53 -15.9 °C -16.4 °C 33558.6 hPa Calm     93% 20.32 mm WeatherDisplay:10.37 W/m2 RA
20:03 -15.9 °C -16.4 °C 33558.6 hPa WNW 5 km/h 26.9 km/h 93% 20.32 mm WeatherDisplay:10.37 W/m2 FEW
20:06 -15.9 °C -16.4 °C 33545.1 hPa SE 6.9 km/h 15 km/h 93% 20.32 mm WeatherDisplay:10.37 W/m2 FEW
20:12 -15.9 °C -16.4 °C 33545.1 hPa Calm   15 km/h 93% 25.4 mm WeatherDisplay:10.37 W/m2 RA
20:16 -15.9 °C -16.4 °C 33545.1 hPa SSE 11.4 km/h 20.9 km/h 93% 25.4 mm WeatherDisplay:10.37 W/m2 RA
20:21 -15.9 °C -16.4 °C 33545.1 hPa SE 13.2 km/h 26.9 km/h 93% 25.4 mm WeatherDisplay:10.37 W/m2 FEW
20:27 -15.9 °C -16.4 °C 33545.1 hPa Calm   9 km/h 93% 33.02 mm WeatherDisplay:10.37 W/m2 RA
20:32 -15.9 °C -16.4 °C 33545.1 hPa South 3.1 km/h 11.9 km/h 93% 38.1 mm WeatherDisplay:10.37 W/m2 RA
20:37 -15.9 °C -16.4 °C 33545.1 hPa Calm     93% 38.1 mm WeatherDisplay:10.37 W/m2 RA
20:43 -15.9 °C -16.5 °C 33545.1 hPa South 0.3 km/h 9 km/h 93% 38.1 mm WeatherDisplay:10.37 W/m2 RA
20:48 -16 °C -16.6 °C 33545.1 hPa ESE 9.8 km/h 29.8 km/h 93% 38.1 mm WeatherDisplay:10.37 W/m2 RA
20:53 -16 °C -16.6 °C 33545.1 hPa SSE 15.8 km/h 28.5 km/h 93% 33.02 mm WeatherDisplay:10.37 W/m2 RA
20:58 -16 °C -16.6 °C 33545.1 hPa ENE 2.1 km/h 9 km/h 93% 38.1 mm WeatherDisplay:10.37 W/m2 RA
21:03 -16 °C -16.6 °C 33545.1 hPa SSW 3.4 km/h 15 km/h 93% 38.1 mm WeatherDisplay:10.37 W/m2 RA
21:09 -16 °C -16.6 °C 33545.1 hPa ENE 15.8 km/h 23.3 km/h 93% 45.72 mm WeatherDisplay:10.37 W/m2 RA
21:14 -16 °C -16.6 °C 33545.1 hPa ESE 1.6 km/h 15 km/h 93% 38.1 mm WeatherDisplay:10.37 W/m2 RA
21:19 -16.1 °C -16.6 °C 33545.1 hPa SE 1.6 km/h 15.6 km/h 93% 45.72 mm WeatherDisplay:10.37 W/m2 RA
21:20 -16.1 °C -16.6 °C 33545.1 hPa South 6.4 km/h 15.6 km/h 93% 45.72 mm WeatherDisplay:10.37 W/m2 RA
21:25 -16.1 °C -16.6 °C 33545.1 hPa Calm     93% 45.72 mm WeatherDisplay:10.37 W/m2 RA
21:30 -16.1 °C -16.6 °C 33534.9 hPa ENE 4.2 km/h 15.6 km/h 93% 38.1 mm WeatherDisplay:10.37 W/m2 RA
21:35 -16.1 °C -16.6 °C 33534.9 hPa SSE 2.6 km/h 9 km/h 93% 45.72 mm WeatherDisplay:10.37 W/m2 RA
21:39 -16.1 °C -16.6 °C 33534.9 hPa East 12.4 km/h 26.9 km/h 93% 38.1 mm WeatherDisplay:10.37 W/m2 RA
21:44 -16.1 °C -16.6 °C 33534.9 hPa East 8.5 km/h 20.9 km/h 93% 38.1 mm WeatherDisplay:10.37 W/m2 RA
21:49 -16.1 °C -16.6 °C 33534.9 hPa ESE 4.7 km/h 9 km/h 93% 38.1 mm WeatherDisplay:10.37 W/m2 RA
21:54 -16.1 °C -16.6 °C 33534.9 hPa SSE 9.3 km/h 17.9 km/h 93% 38.1 mm WeatherDisplay:10.37 W/m2 FEW
21:59 -16.1 °C -16.6 °C 33534.9 hPa ESE 3.4 km/h 17.9 km/h 93% 38.1 mm WeatherDisplay:10.37 W/m2 RA
22:00 -16.1 °C -16.6 °C 33534.9 hPa SE 5.1 km/h 9 km/h 93% 38.1 mm WeatherDisplay:10.37 W/m2 RA
22:05 -16.1 °C -16.6 °C 33534.9 hPa SE 8.5 km/h 15 km/h 93% 33.02 mm WeatherDisplay:10.37 W/m2 RA
22:10 -16.1 °C -16.6 °C 33534.9 hPa SE 7.6 km/h 18.2 km/h 93% 25.4 mm WeatherDisplay:10.37 W/m2 FEW
22:15 -16.1 °C -16.6 °C 33524.8 hPa SE 2.3 km/h 11.9 km/h 93% 20.32 mm WeatherDisplay:10.37 W/m2 FEW
22:20 -16.1 °C -16.6 °C 33534.9 hPa SE 2.3 km/h 23.8 km/h 93% 25.4 mm WeatherDisplay:10.37 W/m2 RA
22:25 -16.1 °C -16.6 °C 33534.9 hPa Calm   9 km/h 93% 20.32 mm WeatherDisplay:10.37 W/m2 RA
22:30 -16.1 °C -16.6 °C 33534.9 hPa ENE 4.7 km/h 9 km/h 93% 20.32 mm WeatherDisplay:10.37 W/m2 FEW
22:36 -16.1 °C -16.6 °C 33534.9 hPa ESE 7.7 km/h 15 km/h 93% 12.7 mm WeatherDisplay:10.37 W/m2 FEW
22:41 -16.1 °C -16.6 °C 33534.9 hPa SE 0.5 km/h 10.3 km/h 93% 12.7 mm WeatherDisplay:10.37 W/m2 FEW
22:46 -16.1 °C -16.6 °C 33534.9 hPa SE 1.8 km/h 9 km/h 93% 12.7 mm WeatherDisplay:10.37 W/m2 FEW
22:48 -16.1 °C -16.6 °C 33534.9 hPa SSE 1 km/h 7.7 km/h 93% 12.7 mm WeatherDisplay:10.37 W/m2 FEW
22:53 -16.1 °C -16.6 °C 33524.8 hPa ESE 5.6 km/h 17.9 km/h 93% 12.7 mm WeatherDisplay:10.37 W/m2 FEW
22:58 -16.1 °C -16.6 °C 33524.8 hPa Calm     93% 7.62 mm WeatherDisplay:10.37 W/m2 FEW
23:04 -16.1 °C -16.6 °C 33524.8 hPa SSE 0.3 km/h 3.1 km/h 93% 7.62 mm WeatherDisplay:10.37 W/m2 FEW
23:07 -16.1 °C -16.6 °C 33524.8 hPa Calm     93% 7.62 mm WeatherDisplay:10.37 W/m2 FEW
23:12 -16.1 °C -16.6 °C 33524.8 hPa Calm     93% 7.62 mm WeatherDisplay:10.37 W/m2 FEW
23:17 -16.1 °C -16.7 °C 33524.8 hPa SE 1 km/h 9 km/h 93% 7.62 mm WeatherDisplay:10.37 W/m2 FEW
23:18 -16.1 °C -16.6 °C 33524.8 hPa Calm     93% 7.62 mm WeatherDisplay:10.37 W/m2 FEW
23:23 -16.1 °C -16.7 °C 33524.8 hPa Calm   3.1 km/h 93% 7.62 mm WeatherDisplay:10.37 W/m2 RA
23:28 -16.1 °C -16.7 °C 33524.8 hPa Calm   3.1 km/h 93% 7.62 mm WeatherDisplay:10.37 W/m2 RA
23:33 -16.1 °C -16.7 °C 33524.8 hPa SSE 5.5 km/h 9 km/h 93% 12.7 mm WeatherDisplay:10.37 W/m2 RA
23:36 -16.1 °C -16.7 °C 33524.8 hPa Calm     93% 12.7 mm WeatherDisplay:10.37 W/m2 RA
23:41 -16.1 °C -16.7 °C 33524.8 hPa Calm     93% 12.7 mm WeatherDisplay:10.37 W/m2 RA
23:47 -16.1 °C -16.7 °C 33524.8 hPa Calm     93% 12.7 mm WeatherDisplay:10.37 W/m2 RA
23:52 -16.2 °C -16.7 °C 33524.8 hPa Calm     93% 12.7 mm WeatherDisplay:10.37 W/m2 RA
23:54 -16.2 °C -16.7 °C 33524.8 hPa Calm     93% 20.32 mm WeatherDisplay:10.37 W/m2 RA
23:59 -16.2 °C -16.7 °C 33524.8 hPa Calm     93% 20.32 mm WeatherDisplay:10.37 W/m2 RA
Tuulensuunkaari, Veikkola, Suomi
Compliments of Weather Underground - 2.75 mb